Time;durP1;ratioP1;P1;durP2;ratioP2;P2;SDS_P1;SDS_P2;PMS_P1;PMS_P2;Temp;Humidity;BMP_temperature;BMP_pressure;BME280_temperature;BME280_humidity;BME280_pressure;Samples;Min_cycle;Max_cycle;Signal;HPM_P1;HPM_P2
2022/02/01 00:04:31;;;;;;;8.70;4.72;;;11.60;99.90;;;;;;5051352;27;20070;-61
2022/02/01 00:09:47;;;;;;;7.65;4.22;;;11.70;99.90;;;;;;5130294;27;20088;-61
2022/02/01 00:36:56;;;;;;;8.05;4.63;;;11.70;99.90;;;;;;5083587;28;20112;-61
2022/02/01 00:39:36;;;;;;;6.75;3.90;;;11.70;99.90;;;;;;5096379;27;20438;-61
2022/02/01 00:42:04;;;;;;;7.70;4.28;;;11.60;99.90;;;;;;5134042;27;20067;-61
2022/02/01 00:44:32;;;;;;;7.47;5.20;;;11.60;99.90;;;;;;5109550;27;20490;-62
2022/02/01 00:46:59;;;;;;;8.30;3.58;;;11.50;99.90;;;;;;5115345;27;20039;-61
2022/02/01 00:49:28;;;;;;;9.55;3.70;;;11.30;99.90;;;;;;5129286;27;20031;-62
2022/02/01 00:51:56;;;;;;;7.35;4.55;;;11.20;99.90;;;;;;5126601;27;20081;-61
2022/02/01 00:54:23;;;;;;;9.32;4.90;;;11.30;99.90;;;;;;5131588;27;20368;-62
2022/02/01 00:56:51;;;;;;;5.60;3.13;;;11.20;99.90;;;;;;5102804;27;20426;-61
2022/02/01 00:59:19;;;;;;;8.13;4.00;;;11.20;99.90;;;;;;5113667;27;20035;-62
2022/02/01 01:01:46;;;;;;;7.53;5.05;;;11.20;99.90;;;;;;5119440;27;20047;-61
2022/02/01 01:04:14;;;;;;;7.60;3.60;;;11.10;99.90;;;;;;5123651;27;20042;-62
2022/02/01 01:06:41;;;;;;;5.88;3.85;;;11.10;99.90;;;;;;5098219;27;20047;-61
2022/02/01 01:09:09;;;;;;;9.98;4.70;;;11.20;99.90;;;;;;5109743;27;20481;-62
2022/02/01 01:11:37;;;;;;;11.82;5.95;;;11.20;99.90;;;;;;5102254;28;20054;-61
2022/02/01 01:44:12;;;;;;;4.97;2.25;;;11.50;99.90;;;;;;5127790;27;20044;-62
2022/02/01 01:54:57;;;;;;;6.05;2.42;;;11.50;99.90;;;;;;5133245;27;20491;-63
2022/02/01 01:57:24;;;;;;;5.38;2.40;;;11.50;99.90;;;;;;5136433;27;20035;-61
2022/02/01 01:59:52;;;;;;;6.18;2.60;;;11.40;99.90;;;;;;5097365;28;20071;-61
2022/02/01 02:02:19;;;;;;;7.95;2.78;;;11.40;99.90;;;;;;5109716;27;20130;-61
2022/02/01 02:04:47;;;;;;;4.78;2.00;;;11.40;99.90;;;;;;5117454;27;20039;-61
2022/02/01 02:07:15;;;;;;;6.93;2.28;;;11.50;99.90;;;;;;5135771;27;20130;-61
2022/02/01 02:09:42;;;;;;;4.68;1.92;;;11.40;99.90;;;;;;5123709;27;20130;-61
2022/02/01 02:12:20;;;;;;;5.28;2.10;;;11.40;99.90;;;;;;5118224;27;20035;-61
2022/02/01 02:14:51;;;;;;;3.40;1.85;;;11.40;99.90;;;;;;5113905;27;20115;-63
2022/02/01 02:17:20;;;;;;;6.10;2.45;;;11.30;99.90;;;;;;5117460;27;20070;-62
2022/02/01 02:19:47;;;;;;;4.68;2.05;;;11.30;99.90;;;;;;5134420;27;20396;-62
2022/02/01 02:22:15;;;;;;;4.13;1.60;;;11.30;99.90;;;;;;5088093;27;20511;-61
2022/02/01 02:24:43;;;;;;;3.00;1.60;;;11.30;99.90;;;;;;5116753;27;20047;-61
2022/02/01 02:27:10;;;;;;;4.15;2.38;;;11.30;99.90;;;;;;5099975;27;20490;-61
2022/02/01 02:29:38;;;;;;;4.82;1.58;;;11.30;99.90;;;;;;5105145;27;20047;-61
2022/02/01 02:32:07;;;;;;;3.42;2.20;;;11.30;99.90;;;;;;5136481;27;20035;-61
2022/02/01 02:34:34;;;;;;;4.28;2.60;;;11.40;99.90;;;;;;5137166;27;20130;-61
2022/02/01 02:37:10;;;;;;;3.35;2.03;;;11.40;99.90;;;;;;5137287;27;20485;-61
2022/02/01 02:40:41;;;;;;;4.65;2.03;;;11.40;99.90;;;;;;5135557;27;20063;-61
2022/02/01 02:45:04;;;;;;;2.85;2.17;;;11.40;99.90;;;;;;5108419;27;20138;-61
2022/02/01 02:45:16;;;;;;;3.33;2.38;;;11.50;99.90;;;;;;5136971;27;20108;-61
2022/02/01 02:47:43;;;;;;;3.03;1.83;;;11.50;99.90;;;;;;5119090;27;20550;-61
2022/02/01 02:50:11;;;;;;;2.03;1.27;;;11.50;99.90;;;;;;5119091;27;20092;-61
2022/02/01 02:52:38;;;;;;;3.05;1.50;;;11.40;99.90;;;;;;5118552;27;20055;-61
2022/02/01 02:55:06;;;;;;;4.72;1.95;;;11.30;99.90;;;;;;5137060;27;20074;-61
2022/02/01 02:57:34;;;;;;;4.10;2.63;;;11.40;99.90;;;;;;5136929;27;20051;-61
2022/02/01 03:00:02;;;;;;;3.08;1.90;;;11.40;99.90;;;;;;5137064;27;20039;-61
2022/02/01 03:02:33;;;;;;;3.53;1.90;;;11.30;99.90;;;;;;5136848;27;20546;-61
2022/02/01 03:05:00;;;;;;;3.08;1.92;;;11.30;99.90;;;;;;5118607;27;20485;-61
2022/02/01 03:07:28;;;;;;;6.05;2.25;;;11.30;99.90;;;;;;5136504;27;20046;-61
2022/02/01 03:09:55;;;;;;;3.70;2.22;;;11.30;99.90;;;;;;5118388;27;20127;-61
2022/02/01 03:12:36;;;;;;;3.58;2.45;;;11.30;99.90;;;;;;5118374;27;20046;-61
2022/02/01 03:15:34;;;;;;;3.72;2.17;;;11.30;99.90;;;;;;5136671;27;20050;-61
2022/02/01 03:20:45;;;;;;;5.55;3.53;;;11.30;99.90;;;;;;5118288;27;20472;-61
2022/02/01 03:23:12;;;;;;;4.72;2.40;;;11.30;99.90;;;;;;5136638;27;20091;-61
2022/02/01 03:25:40;;;;;;;4.45;2.67;;;11.30;99.90;;;;;;5100211;27;20054;-61
2022/02/01 03:28:07;;;;;;;5.35;2.92;;;11.30;99.90;;;;;;5101053;27;20078;-61
2022/02/01 03:30:35;;;;;;;6.82;2.97;;;11.40;99.90;;;;;;5118025;27;20393;-61
2022/02/01 03:33:03;;;;;;;8.18;2.65;;;11.40;99.90;;;;;;5100946;27;20035;-61
2022/02/01 03:35:30;;;;;;;5.55;3.05;;;11.40;99.90;;;;;;5118038;27;20130;-61
2022/02/01 03:38:00;;;;;;;5.13;3.17;;;11.40;99.90;;;;;;5118047;27;20504;-61
2022/02/01 03:40:28;;;;;;;5.63;2.50;;;11.40;99.90;;;;;;5136149;27;20507;-61
2022/02/01 03:42:56;;;;;;;13.50;4.18;;;11.40;99.90;;;;;;5136104;27;20435;-61
2022/02/01 03:45:23;;;;;;;5.63;2.75;;;11.40;99.90;;;;;;5135857;27;20050;-61
2022/02/01 03:47:51;;;;;;;4.40;2.47;;;11.40;99.90;;;;;;5117406;27;20049;-61
2022/02/01 03:50:18;;;;;;;4.35;2.42;;;11.30;99.90;;;;;;5117439;27;20130;-62
2022/02/01 03:52:46;;;;;;;5.85;3.80;;;11.30;99.90;;;;;;5117297;27;20074;-61
2022/02/01 03:55:13;;;;;;;6.80;2.78;;;11.30;99.90;;;;;;5117694;27;20039;-61
2022/02/01 03:57:41;;;;;;;6.38;3.13;;;11.30;99.90;;;;;;5117373;27;20506;-61
2022/02/01 04:00:09;;;;;;;7.38;3.03;;;11.30;99.90;;;;;;5117609;27;20039;-61
2022/02/01 04:02:39;;;;;;;6.72;3.80;;;11.30;99.90;;;;;;5135688;27;20116;-61
2022/02/01 04:05:07;;;;;;;5.88;3.58;;;11.30;99.90;;;;;;5117526;27;20450;-61
2022/02/01 04:07:35;;;;;;;6.82;4.07;;;11.30;99.90;;;;;;5100078;27;20470;-61
2022/02/01 04:10:03;;;;;;;5.07;3.30;;;11.30;99.90;;;;;;5117351;27;20043;-61
2022/02/01 04:12:31;;;;;;;6.15;2.65;;;11.30;99.90;;;;;;5135292;27;20133;-61
2022/02/01 04:14:59;;;;;;;5.78;3.28;;;11.30;99.90;;;;;;5135453;27;20042;-61
2022/02/01 04:17:26;;;;;;;5.43;2.38;;;11.30;99.90;;;;;;5135283;27;20031;-61
2022/02/01 04:19:54;;;;;;;4.90;2.25;;;11.20;99.90;;;;;;5117401;27;20054;-61
2022/02/01 04:22:22;;;;;;;5.22;3.50;;;11.20;99.90;;;;;;5099624;27;20081;-61
2022/02/01 04:24:49;;;;;;;4.35;3.38;;;11.20;99.90;;;;;;5116811;27;20047;-61
2022/02/01 04:27:32;;;;;;;5.03;2.65;;;11.20;99.90;;;;;;5116850;27;20046;-61
2022/02/01 04:30:08;;;;;;;3.95;2.67;;;11.20;99.90;;;;;;5099872;27;20134;-61
2022/02/01 04:32:39;;;;;;;6.33;2.73;;;11.20;99.90;;;;;;5134974;27;20039;-61
2022/02/01 04:35:10;;;;;;;4.68;2.38;;;11.20;99.90;;;;;;5116982;27;20031;-61
2022/02/01 04:37:38;;;;;;;4.38;2.75;;;11.20;99.90;;;;;;5116955;27;20043;-61
2022/02/01 04:40:10;;;;;;;6.38;2.50;;;11.10;99.90;;;;;;5116110;27;20552;-61
2022/02/01 04:42:40;;;;;;;4.53;3.38;;;11.10;99.90;;;;;;5134971;27;20074;-61
2022/02/01 04:45:15;;;;;;;3.03;2.38;;;11.10;99.90;;;;;;5116563;27;20081;-61
2022/02/01 04:47:44;;;;;;;5.05;2.13;;;11.10;99.90;;;;;;5116790;27;20043;-61
2022/02/01 04:50:16;;;;;;;6.32;2.20;;;11.10;99.90;;;;;;5099786;27;20443;-61
2022/02/01 04:52:45;;;;;;;3.65;2.20;;;11.10;99.90;;;;;;5116110;27;20054;-61
2022/02/01 04:55:13;;;;;;;5.35;2.17;;;11.10;99.90;;;;;;5134649;27;20075;-61
2022/02/01 04:57:53;;;;;;;7.00;1.92;;;11.00;99.90;;;;;;5134685;27;20039;-61
2022/02/01 05:00:30;;;;;;;5.70;1.98;;;11.00;99.90;;;;;;5134025;27;20081;-61
2022/02/01 05:03:00;;;;;;;5.28;2.78;;;11.00;99.90;;;;;;5116699;27;20043;-61
2022/02/01 05:05:31;;;;;;;4.18;2.50;;;11.00;99.90;;;;;;5116746;27;20055;-61
2022/02/01 05:08:01;;;;;;;3.58;2.33;;;11.00;99.90;;;;;;5134637;27;20039;-61
2022/02/01 05:10:32;;;;;;;3.72;1.98;;;11.00;99.90;;;;;;5116315;27;20043;-61
2022/02/01 05:16:08;;;;;;;5.00;2.55;;;10.90;99.90;;;;;;5124210;28;20073;-62
2022/02/01 05:18:44;;;;;;;3.13;2.20;;;10.90;99.90;;;;;;5134512;28;20039;-61
2022/02/01 05:21:20;;;;;;;2.72;1.88;;;11.00;99.90;;;;;;5134392;28;20039;-61
2022/02/01 05:23:49;;;;;;;3.50;1.80;;;10.90;99.90;;;;;;5099139;28;20146;-61
2022/02/01 05:26:18;;;;;;;3.60;2.00;;;10.90;99.90;;;;;;5134380;28;20046;-61
2022/02/01 05:28:46;;;;;;;4.05;2.17;;;10.90;99.90;;;;;;5134411;28;20047;-61
2022/02/01 05:31:14;;;;;;;4.00;1.90;;;10.90;99.90;;;;;;5116151;28;20118;-61
2022/02/01 05:33:41;;;;;;;5.22;2.13;;;10.90;99.90;;;;;;5116141;28;20043;-61
2022/02/01 05:36:09;;;;;;;5.18;2.03;;;10.90;99.90;;;;;;5134222;28;20047;-61
2022/02/01 05:38:37;;;;;;;3.72;1.90;;;10.90;99.90;;;;;;5116157;28;20059;-61
2022/02/01 05:41:05;;;;;;;4.40;1.75;;;10.80;99.90;;;;;;5134443;28;20037;-61
2022/02/01 05:43:33;;;;;;;3.38;1.75;;;10.90;99.90;;;;;;5116051;28;20066;-61
2022/02/01 05:46:00;;;;;;;2.65;2.03;;;10.80;99.90;;;;;;5134280;28;20039;-61
2022/02/01 05:48:28;;;;;;;5.20;2.42;;;10.80;99.90;;;;;;5134272;28;20035;-62
2022/02/01 05:50:56;;;;;;;4.05;2.58;;;10.80;99.90;;;;;;5133940;28;20043;-61
2022/02/01 05:53:24;;;;;;;2.88;1.50;;;10.80;99.90;;;;;;5098884;28;20077;-61
2022/02/01 05:55:53;;;;;;;5.25;2.38;;;10.80;99.90;;;;;;5115863;28;20075;-62
2022/02/01 05:58:21;;;;;;;4.43;1.83;;;10.70;99.90;;;;;;5115365;28;20043;-61
2022/02/01 06:00:49;;;;;;;5.18;2.65;;;10.70;99.90;;;;;;5134139;28;20428;-62
2022/02/01 06:03:17;;;;;;;3.15;1.95;;;10.70;99.90;;;;;;5115610;28;20440;-61
2022/02/01 06:05:44;;;;;;;3.40;1.70;;;10.70;99.90;;;;;;5115664;28;20071;-61
2022/02/01 06:08:12;;;;;;;3.05;1.80;;;10.70;99.90;;;;;;5134109;28;20042;-62
2022/02/01 06:10:39;;;;;;;6.18;2.20;;;10.70;99.90;;;;;;5099642;27;20047;-62
2022/02/01 06:13:07;;;;;;;7.47;2.42;;;10.60;99.90;;;;;;5137676;27;20373;-62
2022/02/01 06:15:37;;;;;;;5.85;1.98;;;10.60;99.90;;;;;;5137986;27;20074;-62
2022/02/01 06:18:05;;;;;;;5.35;1.95;;;10.70;99.90;;;;;;5137750;27;20066;-62
2022/02/01 06:20:32;;;;;;;3.10;1.70;;;10.70;99.90;;;;;;5119201;27;20040;-61
2022/02/01 06:23:00;;;;;;;2.15;1.58;;;10.70;99.90;;;;;;5119567;27;20073;-62
2022/02/01 06:28:18;;;;;;;3.60;1.50;;;10.70;99.90;;;;;;5119204;27;20039;-61
2022/02/01 06:30:46;;;;;;;4.65;1.75;;;10.70;99.90;;;;;;5119413;27;20133;-61
2022/02/01 06:33:15;;;;;;;3.60;1.90;;;10.70;99.90;;;;;;5137476;27;20039;-62
2022/02/01 06:35:43;;;;;;;2.80;1.58;;;10.60;99.90;;;;;;5119306;27;20378;-62
2022/02/01 06:38:12;;;;;;;5.47;1.67;;;10.60;99.90;;;;;;5119241;27;20054;-62
2022/02/01 06:40:45;;;;;;;4.78;2.00;;;10.60;99.90;;;;;;5137242;27;20408;-61
2022/02/01 06:43:14;;;;;;;4.05;1.95;;;10.60;99.90;;;;;;5118977;27;20039;-61
2022/02/01 06:45:41;;;;;;;4.63;1.50;;;10.60;99.90;;;;;;5118954;27;20043;-61
2022/02/01 06:48:09;;;;;;;3.10;1.90;;;10.60;99.90;;;;;;5137210;27;20104;-61
2022/02/01 06:50:39;;;;;;;3.35;1.90;;;10.60;99.90;;;;;;5136985;27;20481;-62
2022/02/01 06:53:07;;;;;;;3.72;2.80;;;10.60;99.90;;;;;;5136817;27;20053;-61
2022/02/01 06:55:55;;;;;;;4.47;2.30;;;10.60;99.90;;;;;;5118868;27;20055;-61
2022/02/01 06:58:22;;;;;;;4.45;2.15;;;10.60;99.90;;;;;;5118631;27;20481;-61
2022/02/01 07:00:50;;;;;;;7.05;2.78;;;10.60;99.90;;;;;;5136978;27;20118;-61
2022/02/01 07:03:17;;;;;;;2.70;1.85;;;10.60;99.90;;;;;;5118341;27;20089;-61
2022/02/01 07:05:45;;;;;;;6.88;1.90;;;10.60;99.90;;;;;;5118604;27;20100;-61
2022/02/01 07:08:12;;;;;;;4.22;2.70;;;10.50;99.90;;;;;;5118416;27;20051;-62
2022/02/01 07:10:40;;;;;;;6.25;2.30;;;10.50;99.90;;;;;;5118432;27;20412;-62
2022/02/01 07:13:09;;;;;;;4.97;2.05;;;10.50;99.90;;;;;;5118382;27;20086;-62
2022/02/01 07:15:36;;;;;;;4.18;2.33;;;10.50;99.90;;;;;;5136551;27;20039;-61
2022/02/01 07:18:04;;;;;;;4.72;2.53;;;10.50;99.90;;;;;;5118109;27;20055;-62
2022/02/01 07:20:32;;;;;;;4.53;2.78;;;10.60;99.90;;;;;;5136585;27;20054;-61
2022/02/01 07:23:00;;;;;;;12.75;5.25;;;10.60;99.90;;;;;;5135517;27;20396;-62
2022/02/01 07:25:31;;;;;;;11.35;6.47;;;10.50;99.90;;;;;;5118105;27;20145;-61
2022/02/01 07:28:03;;;;;;;11.52;5.05;;;10.50;99.90;;;;;;5118216;27;20043;-61
2022/02/01 07:30:31;;;;;;;8.20;3.90;;;10.50;99.90;;;;;;5117862;27;20035;-61
2022/02/01 07:33:01;;;;;;;6.28;3.75;;;10.60;99.90;;;;;;5117879;27;20043;-61
2022/02/01 07:35:31;;;;;;;8.15;5.00;;;10.60;99.90;;;;;;5136448;27;20039;-62
2022/02/01 07:38:00;;;;;;;7.85;4.18;;;10.60;99.90;;;;;;5117918;27;20096;-61
2022/02/01 07:40:28;;;;;;;5.45;4.00;;;10.60;99.90;;;;;;5135350;27;20114;-62
2022/02/01 07:42:56;;;;;;;8.75;4.85;;;10.60;99.90;;;;;;5136154;27;20051;-61
2022/02/01 07:45:27;;;;;;;5.38;4.10;;;10.70;99.90;;;;;;5136188;27;20039;-61
2022/02/01 07:47:58;;;;;;;5.25;3.85;;;10.70;99.90;;;;;;5136142;27;20066;-61
2022/02/01 07:50:27;;;;;;;7.80;4.53;;;10.70;99.90;;;;;;5117171;27;20137;-62
2022/02/01 07:52:56;;;;;;;6.28;3.45;;;10.70;99.90;;;;;;5117793;27;20040;-61
2022/02/01 07:55:24;;;;;;;7.13;3.85;;;10.70;99.90;;;;;;5117338;27;20100;-61
2022/02/01 07:57:51;;;;;;;8.57;4.10;;;10.70;99.90;;;;;;5135511;27;20043;-62
2022/02/01 08:00:19;;;;;;;7.40;4.15;;;10.70;99.90;;;;;;5135728;27;20044;-62
2022/02/01 08:02:50;;;;;;;5.65;4.30;;;10.70;99.90;;;;;;5135497;27;20058;-62
2022/02/01 08:05:17;;;;;;;6.30;4.00;;;10.70;99.90;;;;;;5135588;27;20043;-62
2022/02/01 08:07:45;;;;;;;8.05;5.43;;;10.70;99.90;;;;;;5135346;27;20046;-62
2022/02/01 08:10:15;;;;;;;7.22;4.65;;;10.80;99.90;;;;;;5100085;27;20047;-62
2022/02/01 08:20:27;;;;;;;9.38;4.90;;;10.80;99.90;;;;;;5135137;27;20043;-62
2022/02/01 08:25:24;;;;;;;7.95;6.82;;;10.80;99.90;;;;;;5135122;27;20061;-62
2022/02/01 08:27:57;;;;;;;8.07;4.80;;;10.80;99.90;;;;;;5116929;27;20568;-62
2022/02/01 08:30:25;;;;;;;9.63;5.80;;;10.80;99.90;;;;;;5116945;27;20035;-62
2022/02/01 08:32:52;;;;;;;6.13;4.95;;;10.90;99.90;;;;;;5134929;27;20130;-62
2022/02/01 08:35:20;;;;;;;6.13;3.83;;;10.90;99.90;;;;;;5134746;27;20043;-61
2022/02/01 08:37:59;;;;;;;15.32;5.05;;;10.90;99.90;;;;;;5134865;27;20039;-62
2022/02/01 08:40:40;;;;;;;14.07;5.68;;;10.90;99.90;;;;;;5116345;27;20070;-62
2022/02/01 08:43:09;;;;;;;16.38;6.88;;;11.00;99.90;;;;;;5134691;27;20043;-62
2022/02/01 08:45:36;;;;;;;13.02;7.55;;;10.90;99.90;;;;;;5135182;27;20043;-62
2022/02/01 08:48:04;;;;;;;12.15;6.95;;;10.90;99.90;;;;;;5117074;27;20046;-62
2022/02/01 08:50:34;;;;;;;10.63;6.05;;;10.90;99.90;;;;;;5116597;27;20058;-62
2022/02/01 08:53:24;;;;;;;8.07;4.68;;;11.00;99.90;;;;;;5096802;28;20110;-62
2022/02/01 08:58:24;;;;;;;14.02;6.40;;;11.00;99.90;;;;;;5114397;28;20436;-62
2022/02/01 09:00:53;;;;;;;7.28;5.63;;;11.10;99.90;;;;;;5114259;28;20071;-62
2022/02/01 09:03:21;;;;;;;8.73;5.15;;;11.10;99.90;;;;;;5095805;28;20117;-62
2022/02/01 09:05:49;;;;;;;7.40;3.97;;;11.10;99.90;;;;;;5079048;28;20097;-62
2022/02/01 09:08:18;;;;;;;6.22;4.10;;;11.10;99.90;;;;;;5096177;28;20074;-62
2022/02/01 09:10:46;;;;;;;8.25;4.22;;;11.20;99.90;;;;;;5114224;28;20382;-62
2022/02/01 09:13:14;;;;;;;9.45;4.95;;;11.20;99.90;;;;;;5079175;28;20142;-62
2022/02/01 09:15:41;;;;;;;6.00;3.58;;;11.20;99.90;;;;;;5114048;28;20428;-62
2022/02/01 09:18:09;;;;;;;6.70;4.35;;;11.30;99.90;;;;;;5095964;28;20040;-62
2022/02/01 09:20:37;;;;;;;8.50;4.78;;;11.30;99.90;;;;;;5095870;28;20512;-62
2022/02/01 09:23:05;;;;;;;6.90;3.97;;;11.30;99.90;;;;;;5113930;28;20532;-62
2022/02/01 09:25:33;;;;;;;7.85;3.85;;;11.40;99.90;;;;;;5114135;28;20047;-62
2022/02/01 09:28:01;;;;;;;10.75;4.70;;;11.40;99.90;;;;;;5113935;28;20066;-61
2022/02/01 09:30:30;;;;;;;8.35;4.53;;;11.40;99.90;;;;;;5095526;28;20054;-61
2022/02/01 09:32:59;;;;;;;9.02;2.83;;;11.50;99.90;;;;;;5113770;28;20047;-61
2022/02/01 09:35:27;;;;;;;5.25;2.92;;;11.70;99.90;;;;;;5113795;28;20386;-60
2022/02/01 09:37:55;;;;;;;8.70;4.30;;;11.90;99.90;;;;;;5095925;28;20066;-60
2022/02/01 09:40:43;;;;;;;6.10;2.83;;;12.00;99.90;;;;;;5113809;28;20067;-60
2022/02/01 09:43:10;;;;;;;12.02;5.20;;;12.20;99.90;;;;;;5095787;28;20071;-60
2022/02/01 09:45:38;;;;;;;6.15;3.35;;;12.20;99.90;;;;;;5114510;28;20054;-64
2022/02/01 09:48:07;;;;;;;11.77;5.75;;;12.20;99.90;;;;;;5118156;28;20470;-60
2022/02/01 09:50:35;;;;;;;8.43;3.65;;;12.20;99.90;;;;;;5117925;28;20043;-60
2022/02/01 09:53:03;;;;;;;12.45;4.63;;;12.20;99.90;;;;;;5137628;27;20163;-60
2022/02/01 09:55:31;;;;;;;11.30;4.32;;;12.20;99.90;;;;;;5120111;27;20047;-60
2022/02/01 09:58:01;;;;;;;10.48;5.72;;;12.20;99.90;;;;;;5138221;27;20050;-61
2022/02/01 10:00:35;;;;;;;13.60;5.18;;;12.10;99.90;;;;;;5119867;27;20489;-61
2022/02/01 10:03:04;;;;;;;10.15;5.28;;;12.00;99.90;;;;;;5138496;27;20043;-62
2022/02/01 10:05:32;;;;;;;11.63;5.43;;;12.00;99.90;;;;;;5138239;27;20381;-62
2022/02/01 10:08:00;;;;;;;10.25;5.70;;;11.90;99.90;;;;;;5102896;27;20051;-62
2022/02/01 10:10:30;;;;;;;12.52;5.43;;;11.90;99.90;;;;;;5138020;27;20051;-63
2022/02/01 10:13:14;;;;;;;9.25;4.35;;;11.80;99.90;;;;;;5137894;27;20370;-63
2022/02/01 10:15:59;;;;;;;6.72;3.90;;;11.60;99.90;;;;;;5119793;27;20051;-63
2022/02/01 10:18:28;;;;;;;7.93;4.28;;;11.50;99.90;;;;;;5120126;27;20043;-63
2022/02/01 10:21:08;;;;;;;12.27;4.35;;;11.30;99.90;;;;;;5137822;27;20452;-63
2022/02/01 10:23:38;;;;;;;5.25;3.15;;;11.20;99.90;;;;;;5119378;27;20035;-63
2022/02/01 10:26:10;;;;;;;7.28;3.17;;;11.10;99.90;;;;;;5119787;27;20070;-63
2022/02/01 10:29:19;;;;;;;7.30;4.15;;;11.00;99.90;;;;;;5102523;27;20073;-63
2022/02/01 10:31:53;;;;;;;9.52;3.88;;;10.90;99.90;;;;;;5102567;27;20050;-63
2022/02/01 10:37:16;;;;;;;6.70;4.22;;;10.80;99.90;;;;;;5137678;27;20130;-63
2022/02/01 10:39:46;;;;;;;6.38;4.03;;;10.90;99.90;;;;;;5137468;27;20489;-63
2022/02/01 10:42:15;;;;;;;8.85;4.45;;;10.90;99.90;;;;;;5137338;27;20092;-63
2022/02/01 10:44:49;;;;;;;6.82;4.20;;;10.90;99.90;;;;;;5118998;27;20450;-63
2022/02/01 10:47:42;;;;;;;5.45;3.55;;;10.90;99.90;;;;;;5137450;27;20038;-63
2022/02/01 10:50:16;;;;;;;10.77;4.72;;;10.80;99.90;;;;;;5137435;27;20039;-63
2022/02/01 10:52:49;;;;;;;10.73;4.63;;;10.80;99.90;;;;;;5136162;27;20047;-63
2022/02/01 10:55:18;;;;;;;5.43;3.90;;;10.80;99.90;;;;;;5119096;27;20433;-63
2022/02/01 10:57:47;;;;;;;8.38;3.95;;;10.80;99.90;;;;;;5135937;27;20039;-63
2022/02/01 11:00:17;;;;;;;6.38;3.53;;;10.70;99.90;;;;;;5119061;27;20039;-63
2022/02/01 11:02:47;;;;;;;8.35;5.10;;;10.70;99.90;;;;;;5118781;27;20576;-63
2022/02/01 11:05:18;;;;;;;8.25;5.80;;;10.70;99.90;;;;;;5136920;27;20035;-63
2022/02/01 11:08:04;;;;;;;6.65;3.55;;;10.70;99.90;;;;;;5121366;27;20124;-63
2022/02/01 11:10:34;;;;;;;9.63;3.85;;;10.60;99.90;;;;;;5136744;27;20035;-63
2022/02/01 11:13:10;;;;;;;6.35;4.03;;;10.60;99.90;;;;;;5136693;27;20095;-63
2022/02/01 11:15:38;;;;;;;7.85;4.18;;;10.50;99.90;;;;;;5101826;27;20046;-63
2022/02/01 11:18:13;;;;;;;11.45;4.93;;;10.40;99.90;;;;;;5118660;27;20071;-63
2022/02/01 11:20:47;;;;;;;9.80;4.72;;;10.50;99.90;;;;;;5118423;27;20126;-63
2022/02/01 11:23:22;;;;;;;8.23;3.58;;;10.40;99.90;;;;;;5118285;27;20043;-63
2022/02/01 11:25:56;;;;;;;12.27;4.57;;;10.40;99.90;;;;;;5101564;27;20069;-63
2022/02/01 11:28:58;;;;;;;7.90;4.50;;;10.30;99.90;;;;;;5118189;27;20043;-63
2022/02/01 11:31:30;;;;;;;5.22;3.15;;;10.30;99.90;;;;;;5136352;27;20053;-63
2022/02/01 11:33:58;;;;;;;6.47;3.67;;;10.20;99.90;;;;;;5118330;27;20206;-63
2022/02/01 11:36:37;;;;;;;10.57;4.05;;;10.20;99.90;;;;;;5136258;27;20486;-63
2022/02/01 11:39:11;;;;;;;6.43;4.68;;;10.20;99.90;;;;;;5118233;27;20047;-63
2022/02/01 11:41:41;;;;;;;6.97;3.83;;;10.20;99.90;;;;;;5136365;27;20134;-63
2022/02/01 11:44:29;;;;;;;4.82;3.63;;;10.20;99.90;;;;;;5136221;27;20043;-63
2022/02/01 11:47:19;;;;;;;5.88;4.30;;;10.20;99.90;;;;;;5117906;27;20039;-63
2022/02/01 11:49:59;;;;;;;8.02;3.67;;;10.20;99.90;;;;;;5101147;27;20043;-62
2022/02/01 11:52:28;;;;;;;6.82;4.63;;;10.20;99.90;;;;;;5136190;27;20058;-63
2022/02/01 11:55:08;;;;;;;11.68;5.50;;;10.10;99.90;;;;;;5117674;27;20039;-63
2022/02/01 11:57:54;;;;;;;12.27;4.82;;;10.10;99.90;;;;;;5117725;27;20051;-63
2022/02/01 12:00:25;;;;;;;8.02;4.05;;;10.20;99.90;;;;;;5135926;27;20385;-63
2022/02/01 12:03:00;;;;;;;8.55;5.80;;;10.10;99.90;;;;;;5135884;27;20130;-63
2022/02/01 12:05:33;;;;;;;7.47;4.07;;;10.10;99.90;;;;;;5135695;27;20073;-62
2022/02/01 12:08:15;;;;;;;6.18;5.05;;;10.10;99.90;;;;;;5135558;27;20031;-62
2022/02/01 12:10:47;;;;;;;6.68;4.47;;;10.10;99.90;;;;;;5117059;27;20393;-62
2022/02/01 12:13:22;;;;;;;7.32;3.95;;;10.10;99.90;;;;;;5135444;27;20073;-62
2022/02/01 12:15:56;;;;;;;5.97;4.95;;;10.10;99.90;;;;;;5117290;27;20046;-62
2022/02/01 12:18:42;;;;;;;9.45;4.80;;;10.20;99.90;;;;;;5135325;27;20054;-62
2022/02/01 12:21:27;;;;;;;8.68;4.20;;;10.10;99.90;;;;;;5099780;27;20505;-62
2022/02/01 12:24:00;;;;;;;8.10;4.68;;;10.10;99.90;;;;;;5135269;27;20049;-76
2022/02/01 12:26:29;;;;;;;9.40;4.03;;;10.10;99.90;;;;;;5135242;27;20047;-75
2022/02/01 12:28:59;;;;;;;9.38;4.43;;;10.20;99.90;;;;;;5117468;27;20039;-76
2022/02/01 12:31:28;;;;;;;8.48;4.60;;;10.20;99.90;;;;;;5116929;27;20039;-59
2022/02/01 12:33:58;;;;;;;7.28;3.65;;;10.20;99.90;;;;;;5099987;27;20050;-59
2022/02/01 12:36:34;;;;;;;10.85;4.78;;;10.10;99.90;;;;;;5099955;27;20043;-59
2022/02/01 12:39:23;;;;;;;13.93;5.03;;;10.20;99.90;;;;;;5116885;27;20120;-59
2022/02/01 12:47:24;;;;;;;5.70;3.08;;;10.30;99.90;;;;;;5116613;27;20096;-60
2022/02/01 12:50:05;;;;;;;8.23;4.00;;;10.30;99.90;;;;;;5084573;27;20054;-59
2022/02/01 12:52:34;;;;;;;8.63;3.97;;;10.30;99.90;;;;;;5099702;27;20047;-59
2022/02/01 12:55:04;;;;;;;6.68;3.42;;;10.40;99.90;;;;;;5116552;27;20043;-60
2022/02/01 12:57:33;;;;;;;7.50;3.33;;;10.50;99.90;;;;;;5099793;27;20122;-59
2022/02/01 13:00:13;;;;;;;5.82;3.67;;;10.50;99.90;;;;;;5099599;27;20093;-59
2022/02/01 13:02:41;;;;;;;3.95;2.60;;;10.40;99.90;;;;;;5134778;27;20046;-59
2022/02/01 13:05:14;;;;;;;7.07;3.47;;;10.40;99.90;;;;;;5116632;28;20047;-59
2022/02/01 13:21:37;;;;;;;10.95;5.50;;;10.70;99.90;;;;;;5133779;27;20035;-60
2022/02/01 13:24:06;;;;;;;9.90;4.88;;;10.80;99.90;;;;;;5134493;28;20120;-59
2022/02/01 13:26:45;;;;;;;11.95;4.28;;;10.70;99.90;;;;;;5134485;28;20373;-60
2022/02/01 13:29:14;;;;;;;7.85;4.40;;;10.60;99.90;;;;;;5116455;28;20388;-59
2022/02/01 13:31:50;;;;;;;12.73;5.70;;;10.70;99.90;;;;;;5116494;28;20438;-59
2022/02/01 13:34:27;;;;;;;9.70;4.43;;;10.70;99.90;;;;;;5134408;28;20053;-61
2022/02/01 13:36:57;;;;;;;6.78;3.50;;;10.70;99.90;;;;;;5134529;28;20049;-59
2022/02/01 13:39:32;;;;;;;6.43;3.42;;;10.70;99.90;;;;;;5116335;28;20064;-59
2022/02/01 13:42:07;;;;;;;6.63;3.92;;;10.70;99.90;;;;;;5116388;28;20061;-59
2022/02/01 13:44:54;;;;;;;5.65;3.58;;;10.70;99.90;;;;;;5101383;28;20062;-59
2022/02/01 13:47:42;;;;;;;6.57;3.97;;;10.80;99.90;;;;;;5082702;28;20051;-60
2022/02/01 13:50:17;;;;;;;7.93;3.95;;;10.80;99.90;;;;;;5134285;28;20057;-59
2022/02/01 13:52:56;;;;;;;4.72;2.90;;;10.70;99.90;;;;;;5115806;28;20050;-60
2022/02/01 13:55:24;;;;;;;6.45;5.03;;;10.70;99.90;;;;;;5116206;28;20047;-59
2022/02/01 13:58:07;;;;;;;5.95;3.22;;;10.70;99.90;;;;;;5116091;28;20092;-59
2022/02/01 14:00:38;;;;;;;9.25;3.33;;;10.70;99.90;;;;;;5134203;28;20044;-59
2022/02/01 14:03:27;;;;;;;6.55;2.72;;;10.80;99.90;;;;;;5115981;28;20118;-60
2022/02/01 14:06:39;;;;;;;3.95;2.92;;;10.80;99.90;;;;;;5134332;28;20066;-59
2022/02/01 14:09:22;;;;;;;4.03;2.55;;;10.80;99.90;;;;;;5115848;28;20066;-59
2022/02/01 14:28:43;;;;;;;5.50;3.05;;;10.70;98.40;;;;;;5114976;28;20497;-59
2022/02/01 14:34:01;;;;;;;6.28;3.17;;;10.60;97.90;;;;;;5137597;27;20084;-60
2022/02/01 14:36:37;;;;;;;6.72;3.15;;;10.60;97.60;;;;;;5086078;27;20051;-60
2022/02/01 14:46:48;;;;;;;8.52;5.55;;;10.80;99.40;;;;;;5102090;27;20069;-62
2022/02/01 14:49:16;;;;;;;6.28;4.43;;;11.00;98.70;;;;;;5137177;27;20046;-63
2022/02/01 14:51:43;;;;;;;7.00;3.42;;;11.00;97.20;;;;;;5085540;27;20051;-63
2022/02/01 14:54:17;;;;;;;8.88;4.45;;;10.90;96.90;;;;;;5098350;28;20052;-63
2022/02/01 14:56:49;;;;;;;6.50;4.00;;;10.90;96.80;;;;;;5081626;28;20054;-63
2022/02/01 15:05:14;;;;;;;6.07;3.25;;;10.90;95.90;;;;;;5098524;28;20142;-63
2022/02/01 15:07:53;;;;;;;12.82;3.10;;;10.90;96.00;;;;;;5098244;28;20428;-63
2022/02/01 15:13:06;;;;;;;4.70;2.63;;;10.80;95.90;;;;;;5116414;28;20035;-63
2022/02/01 15:15:34;;;;;;;4.55;3.20;;;10.80;96.00;;;;;;5116213;28;20047;-63
2022/02/01 15:18:01;;;;;;;5.85;3.05;;;10.70;95.40;;;;;;5097385;28;20039;-64
2022/02/01 15:20:33;;;;;;;4.85;3.00;;;10.70;95.40;;;;;;5081435;28;20051;-64
2022/02/01 15:23:02;;;;;;;9.82;4.32;;;10.60;94.80;;;;;;5098328;28;20066;-64
2022/02/01 15:25:30;;;;;;;7.03;3.67;;;10.70;95.50;;;;;;5098178;28;20043;-64
2022/02/01 15:27:58;;;;;;;6.35;3.58;;;10.90;95.40;;;;;;5098136;28;20040;-64
2022/02/01 15:30:31;;;;;;;9.13;4.32;;;10.90;95.00;;;;;;5097661;28;20079;-63
2022/02/01 15:32:59;;;;;;;7.10;3.47;;;10.80;94.60;;;;;;5097896;28;20051;-63
2022/02/01 15:35:27;;;;;;;6.47;3.25;;;10.70;94.40;;;;;;5097370;28;20085;-63